Time;durP1;ratioP1;P1;durP2;ratioP2;P2;SDS_P1;SDS_P2;PMS_P1;PMS_P2;Temp;Humidity;BMP_temperature;BMP_pressure;BME280_temperature;BME280_humidity;BME280_pressure;Samples;Min_cycle;Max_cycle;Signal;HPM_P1;HPM_P2
2023/07/02 00:01:11;;;;;;;1.90;1.50;;;25.50;52.70;;;;;;5053479;28;20262;-68
2023/07/02 00:03:40;;;;;;;2.40;1.50;;;25.50;52.70;;;;;;5053313;28;20185;-69
2023/07/02 00:06:06;;;;;;;1.80;1.70;;;25.50;52.70;;;;;;5053511;28;20557;-68
2023/07/02 00:08:32;;;;;;;1.83;1.63;;;25.50;52.70;;;;;;5053292;28;20449;-69
2023/07/02 00:10:57;;;;;;;2.00;1.80;;;25.50;52.80;;;;;;5053217;28;20441;-68
2023/07/02 00:13:23;;;;;;;3.37;1.73;;;25.50;53.30;;;;;;5053500;28;20175;-69
2023/07/02 00:15:48;;;;;;;2.63;1.70;;;25.50;52.80;;;;;;5053129;28;20227;-69
2023/07/02 00:18:17;;;;;;;1.93;1.77;;;25.50;52.80;;;;;;5053100;28;20171;-68
2023/07/02 00:20:43;;;;;;;2.17;1.80;;;25.50;52.80;;;;;;5053363;28;20186;-69
2023/07/02 00:23:09;;;;;;;1.67;1.57;;;25.50;52.90;;;;;;5053298;28;20423;-69
2023/07/02 00:25:36;;;;;;;2.10;1.60;;;25.50;52.90;;;;;;5052858;28;20475;-69
2023/07/02 00:28:02;;;;;;;2.57;1.80;;;25.50;52.90;;;;;;5052902;28;20422;-69
2023/07/02 00:30:27;;;;;;;2.03;1.73;;;25.50;52.90;;;;;;5052916;28;20401;-69
2023/07/02 00:32:53;;;;;;;1.80;1.53;;;25.50;52.90;;;;;;5052847;28;20409;-69
2023/07/02 00:37:54;;;;;;;1.90;1.70;;;25.50;52.90;;;;;;5348145;23;20676;-85
2023/07/02 00:40:20;;;;;;;1.90;1.50;;;25.50;52.90;;;;;;4992541;28;20498;-85
2023/07/02 00:42:46;;;;;;;2.33;1.90;;;25.50;52.90;;;;;;4992386;28;20436;-84
2023/07/02 00:45:11;;;;;;;2.43;1.90;;;25.50;53.00;;;;;;4992899;28;20715;-85
2023/07/02 00:47:37;;;;;;;2.00;1.80;;;25.50;52.90;;;;;;4992744;28;20181;-85
2023/07/02 00:50:04;;;;;;;2.20;2.00;;;25.50;53.00;;;;;;4992502;28;20646;-85
2023/07/02 00:52:29;;;;;;;2.30;2.10;;;25.50;53.10;;;;;;4992794;28;20220;-85
2023/07/02 00:54:55;;;;;;;2.40;2.20;;;25.50;53.10;;;;;;4993525;28;20408;-85
2023/07/02 00:57:21;;;;;;;2.30;1.97;;;25.50;53.10;;;;;;4992414;28;20555;-85
2023/07/02 00:59:46;;;;;;;2.43;2.20;;;25.50;53.20;;;;;;4992401;28;20264;-85
2023/07/02 01:02:12;;;;;;;1.93;1.80;;;25.50;53.20;;;;;;4991769;28;20204;-85
2023/07/02 01:04:39;;;;;;;2.03;1.83;;;25.50;53.20;;;;;;4992001;28;20631;-85
2023/07/02 01:07:11;;;;;;;2.10;1.90;;;25.50;53.10;;;;;;4992291;28;20799;-85
2023/07/02 01:09:37;;;;;;;1.80;1.70;;;25.50;53.10;;;;;;4993423;28;20403;-85
2023/07/02 01:12:05;;;;;;;2.50;1.97;;;25.50;53.10;;;;;;4991812;28;20448;-85
2023/07/02 01:14:33;;;;;;;2.27;2.07;;;25.50;53.20;;;;;;4992234;28;20428;-85
2023/07/02 01:17:00;;;;;;;2.10;1.90;;;25.50;53.20;;;;;;4992083;28;21243;-85
2023/07/02 01:19:33;;;;;;;2.00;1.80;;;25.50;53.30;;;;;;4993158;28;21014;-85
2023/07/02 01:22:00;;;;;;;3.10;2.80;;;25.40;53.30;;;;;;4993295;28;21017;-85
2023/07/02 01:24:26;;;;;;;2.73;2.37;;;25.50;53.30;;;;;;4992204;28;20460;-85
2023/07/02 01:26:52;;;;;;;2.40;2.20;;;25.40;53.30;;;;;;4992014;28;20907;-85
2023/07/02 01:29:19;;;;;;;2.53;2.33;;;25.40;53.30;;;;;;4992195;28;20516;-85
2023/07/02 01:31:46;;;;;;;2.40;2.20;;;25.50;53.40;;;;;;4991908;28;20747;-85
2023/07/02 01:34:12;;;;;;;3.20;2.90;;;25.40;53.40;;;;;;4991542;28;20523;-86
2023/07/02 01:36:38;;;;;;;3.17;2.53;;;25.40;53.40;;;;;;4992914;28;20842;-84
2023/07/02 01:39:04;;;;;;;2.57;2.37;;;25.40;53.40;;;;;;4991958;28;20448;-85
2023/07/02 01:41:31;;;;;;;2.73;2.53;;;25.40;53.40;;;;;;4992307;28;20575;-85
2023/07/02 01:43:57;;;;;;;2.80;2.57;;;25.40;53.50;;;;;;4992392;28;20215;-85
2023/07/02 01:46:22;;;;;;;2.50;2.30;;;25.40;53.50;;;;;;4992073;28;20432;-85
2023/07/02 01:48:48;;;;;;;3.07;2.53;;;25.40;53.50;;;;;;4991456;28;20204;-85
2023/07/02 01:51:14;;;;;;;2.87;2.63;;;25.40;53.50;;;;;;4993009;28;20204;-86
2023/07/02 01:53:39;;;;;;;3.40;3.10;;;25.40;53.50;;;;;;4991820;28;20177;-85
2023/07/02 01:56:05;;;;;;;2.67;2.47;;;25.40;53.50;;;;;;4993449;28;20173;-85
2023/07/02 01:58:31;;;;;;;2.63;2.23;;;25.40;53.50;;;;;;4992022;28;20271;-85
2023/07/02 02:00:56;;;;;;;3.23;2.70;;;25.40;53.50;;;;;;4991530;28;20204;-85
2023/07/02 02:03:22;;;;;;;2.50;2.30;;;25.40;53.50;;;;;;4991658;28;20184;-85
2023/07/02 02:05:48;;;;;;;3.83;2.90;;;25.40;53.60;;;;;;4992962;28;20283;-85
2023/07/02 02:08:15;;;;;;;3.83;2.80;;;25.40;53.60;;;;;;4993222;28;20471;-85
2023/07/02 02:10:41;;;;;;;2.67;2.47;;;25.40;53.60;;;;;;4991850;28;20205;-85
2023/07/02 02:13:07;;;;;;;3.57;2.60;;;25.40;53.20;;;;;;4993865;28;20427;-85
2023/07/02 02:15:32;;;;;;;3.10;2.80;;;25.30;53.50;;;;;;4995937;28;20180;-85
2023/07/02 02:17:58;;;;;;;2.53;2.33;;;25.30;53.60;;;;;;4997246;28;20189;-84
2023/07/02 02:20:23;;;;;;;3.43;2.80;;;25.30;53.50;;;;;;4995124;28;20181;-85
2023/07/02 02:22:49;;;;;;;2.43;2.23;;;25.30;53.60;;;;;;4995218;28;20177;-85
2023/07/02 02:25:15;;;;;;;3.03;2.73;;;25.30;53.60;;;;;;4996819;28;20207;-85
2023/07/02 02:27:40;;;;;;;4.90;2.80;;;25.30;53.50;;;;;;4996120;28;20181;-85
2023/07/02 02:30:07;;;;;;;2.63;2.43;;;25.30;53.60;;;;;;4996105;28;20181;-84
2023/07/02 02:32:33;;;;;;;2.90;2.70;;;25.30;53.60;;;;;;4996825;28;20259;-85
2023/07/02 02:34:58;;;;;;;2.60;2.40;;;25.30;53.60;;;;;;4995603;28;20424;-85
2023/07/02 02:37:24;;;;;;;3.13;2.70;;;25.30;53.60;;;;;;4996537;28;20196;-85
2023/07/02 02:39:50;;;;;;;3.07;2.80;;;25.30;53.60;;;;;;4979291;28;20280;-85
2023/07/02 02:42:16;;;;;;;2.53;2.33;;;25.30;53.60;;;;;;4996660;28;20196;-85
2023/07/02 02:44:41;;;;;;;2.80;2.60;;;25.30;53.60;;;;;;4978728;28;20475;-85
2023/07/02 02:47:07;;;;;;;3.00;2.50;;;25.30;53.60;;;;;;4996290;28;20177;-85
2023/07/02 02:49:33;;;;;;;2.73;2.50;;;25.30;53.60;;;;;;4995769;28;20213;-85
2023/07/02 02:51:58;;;;;;;3.40;2.67;;;25.30;53.60;;;;;;4994812;28;20212;-85
2023/07/02 02:54:24;;;;;;;3.57;3.00;;;25.30;53.60;;;;;;4994570;28;20181;-85
2023/07/02 02:56:49;;;;;;;2.83;2.63;;;25.30;53.60;;;;;;4994562;28;20185;-85
2023/07/02 02:59:15;;;;;;;2.33;2.13;;;25.30;53.60;;;;;;4995724;28;20192;-85
2023/07/02 03:01:41;;;;;;;2.70;2.33;;;25.30;53.60;;;;;;4994884;28;20197;-85
2023/07/02 03:04:08;;;;;;;2.90;2.40;;;25.30;54.20;;;;;;4979558;28;20650;-85
2023/07/02 03:06:34;;;;;;;2.73;2.53;;;25.30;53.60;;;;;;4995516;28;20201;-85
2023/07/02 03:09:00;;;;;;;2.70;2.50;;;25.30;53.60;;;;;;4994709;28;20463;-85
2023/07/02 03:11:26;;;;;;;3.13;2.57;;;25.30;53.60;;;;;;4995908;28;20951;-85
2023/07/02 03:13:51;;;;;;;3.70;2.80;;;25.20;53.50;;;;;;4995391;28;20261;-85
2023/07/02 03:16:17;;;;;;;3.27;2.50;;;25.20;53.50;;;;;;4994829;28;20735;-85
2023/07/02 03:18:42;;;;;;;3.03;2.73;;;25.20;53.50;;;;;;4995204;28;20188;-85
2023/07/02 03:21:09;;;;;;;2.60;2.40;;;25.20;53.50;;;;;;4995040;28;20201;-85
2023/07/02 03:23:35;;;;;;;2.80;2.60;;;25.20;53.50;;;;;;4979034;28;20173;-85
2023/07/02 03:26:01;;;;;;;3.30;3.07;;;25.20;53.50;;;;;;4995164;28;20436;-85
2023/07/02 03:28:27;;;;;;;3.73;2.50;;;25.20;53.40;;;;;;4995174;28;20188;-85
2023/07/02 03:30:55;;;;;;;2.27;2.07;;;25.20;53.40;;;;;;4996174;28;20295;-85
2023/07/02 03:33:22;;;;;;;4.17;3.37;;;25.20;53.40;;;;;;4996358;28;20428;-85
2023/07/02 03:35:48;;;;;;;2.60;2.40;;;25.20;53.40;;;;;;4994964;28;20424;-85
2023/07/02 03:38:14;;;;;;;3.20;2.60;;;25.20;53.40;;;;;;4995922;28;20575;-85
2023/07/02 03:40:40;;;;;;;3.00;2.50;;;25.20;53.40;;;;;;4996490;28;20201;-85
2023/07/02 03:43:06;;;;;;;3.17;2.30;;;25.20;53.40;;;;;;4996199;28;20791;-85
2023/07/02 03:45:31;;;;;;;3.87;2.73;;;25.20;53.30;;;;;;4994813;28;20247;-85
2023/07/02 03:47:57;;;;;;;2.50;2.30;;;25.20;53.30;;;;;;4994729;28;20178;-85
2023/07/02 03:50:22;;;;;;;3.80;2.63;;;25.20;53.40;;;;;;4994990;28;20982;-85
2023/07/02 03:52:48;;;;;;;2.83;2.60;;;25.10;53.20;;;;;;4995547;28;20173;-85
2023/07/02 03:55:14;;;;;;;3.13;2.37;;;25.10;53.20;;;;;;4994784;28;20197;-86
2023/07/02 03:57:39;;;;;;;2.70;2.30;;;25.10;53.10;;;;;;4994411;28;20178;-85
2023/07/02 04:00:06;;;;;;;2.77;2.17;;;25.10;53.10;;;;;;4994799;28;20212;-86
2023/07/02 04:02:31;;;;;;;4.37;2.63;;;25.10;53.10;;;;;;4993995;28;20681;-85
2023/07/02 04:04:57;;;;;;;2.60;2.40;;;25.10;53.10;;;;;;4995517;28;20506;-85
2023/07/02 04:07:23;;;;;;;2.40;2.20;;;25.10;53.00;;;;;;4993967;28;20181;-85
2023/07/02 04:09:49;;;;;;;2.90;2.23;;;25.10;53.00;;;;;;4995668;28;20419;-86
2023/07/02 04:12:14;;;;;;;3.00;2.70;;;25.10;52.90;;;;;;4994222;28;20201;-85
2023/07/02 04:14:40;;;;;;;2.67;2.33;;;25.10;52.90;;;;;;4994174;28;20183;-85
2023/07/02 04:17:12;;;;;;;2.90;2.60;;;25.10;52.90;;;;;;4994012;28;20259;-85
2023/07/02 04:19:37;;;;;;;2.67;2.47;;;25.10;52.80;;;;;;4993806;28;20611;-85
2023/07/02 04:22:03;;;;;;;3.77;2.70;;;25.10;52.80;;;;;;4994435;28;20526;-85
2023/07/02 04:24:29;;;;;;;4.20;2.60;;;25.10;52.80;;;;;;4993837;28;20232;-85
2023/07/02 04:26:55;;;;;;;2.70;2.13;;;25.10;52.70;;;;;;4995893;28;20196;-85
2023/07/02 04:29:21;;;;;;;3.50;2.60;;;25.10;52.70;;;;;;4997321;28;20443;-85
2023/07/02 04:31:46;;;;;;;3.20;2.53;;;25.10;52.70;;;;;;4994271;28;20245;-85
2023/07/02 04:34:12;;;;;;;3.23;2.50;;;25.10;52.60;;;;;;4994103;28;20448;-85
2023/07/02 04:36:38;;;;;;;3.70;2.30;;;25.10;52.60;;;;;;4994361;28;20248;-85
2023/07/02 04:39:04;;;;;;;4.40;2.20;;;25.10;52.50;;;;;;4994972;28;20209;-85
2023/07/02 04:41:29;;;;;;;2.63;2.43;;;25.10;52.40;;;;;;4993575;28;20685;-85
2023/07/02 04:43:55;;;;;;;2.60;2.40;;;25.10;52.40;;;;;;4993087;28;20420;-85
2023/07/02 04:46:21;;;;;;;2.30;2.10;;;25.00;52.30;;;;;;4993276;28;20246;-85
2023/07/02 04:48:47;;;;;;;3.60;2.40;;;25.10;52.30;;;;;;4993543;28;20289;-85
2023/07/02 04:51:12;;;;;;;2.30;2.10;;;25.00;52.20;;;;;;4993424;28;20764;-84
2023/07/02 04:53:38;;;;;;;2.50;1.83;;;25.10;52.20;;;;;;4993257;28;20233;-84
2023/07/02 04:56:04;;;;;;;2.80;2.20;;;25.00;52.10;;;;;;4993351;28;20323;-84
2023/07/02 04:58:30;;;;;;;3.13;2.80;;;25.00;52.10;;;;;;4994776;28;20649;-84
2023/07/02 05:00:55;;;;;;;2.97;2.33;;;25.00;52.50;;;;;;4993352;28;20831;-86
2023/07/02 05:03:21;;;;;;;2.97;2.60;;;25.00;51.80;;;;;;4994375;28;20177;-84
2023/07/02 05:05:47;;;;;;;3.97;2.80;;;25.00;51.70;;;;;;4993543;28;20212;-85
2023/07/02 05:08:12;;;;;;;5.10;3.93;;;25.00;51.50;;;;;;4994003;28;20177;-85
2023/07/02 05:10:38;;;;;;;5.23;3.40;;;25.00;51.30;;;;;;4994251;28;20677;-85
2023/07/02 05:13:05;;;;;;;3.80;3.50;;;25.00;51.20;;;;;;4992390;28;20209;-85
2023/07/02 05:15:32;;;;;;;3.30;2.93;;;25.00;51.10;;;;;;4992786;28;20183;-84
2023/07/02 05:17:58;;;;;;;5.50;3.20;;;24.90;51.00;;;;;;4992929;28;20447;-85
2023/07/02 05:20:23;;;;;;;5.80;3.33;;;24.90;50.90;;;;;;4992590;28;20440;-85
2023/07/02 05:22:49;;;;;;;4.00;3.20;;;24.90;50.80;;;;;;4976234;28;20184;-85
2023/07/02 05:25:14;;;;;;;5.97;3.30;;;24.90;50.80;;;;;;4992627;28;20231;-84
2023/07/02 05:27:41;;;;;;;3.80;3.17;;;24.90;50.80;;;;;;4992982;28;20756;-84
2023/07/02 05:30:08;;;;;;;4.20;3.00;;;24.90;50.90;;;;;;4994392;28;20185;-84
2023/07/02 05:32:34;;;;;;;4.73;3.20;;;24.90;50.90;;;;;;4993893;28;20962;-84
2023/07/02 05:35:00;;;;;;;6.70;3.43;;;24.90;50.90;;;;;;4992835;28;20478;-85
2023/07/02 05:37:25;;;;;;;7.10;3.20;;;24.90;50.90;;;;;;4994050;28;20424;-85
2023/07/02 05:39:51;;;;;;;4.50;3.20;;;24.90;51.50;;;;;;4976902;28;20181;-85
2023/07/02 05:42:17;;;;;;;6.20;3.87;;;24.90;50.90;;;;;;4993592;28;20204;-84
2023/07/02 05:44:42;;;;;;;4.57;3.37;;;24.90;50.70;;;;;;4994068;28;20200;-84
2023/07/02 05:47:08;;;;;;;4.70;3.60;;;24.90;50.60;;;;;;4992745;28;20183;-84
2023/07/02 05:49:34;;;;;;;6.43;4.00;;;24.90;50.50;;;;;;4998496;28;20177;-83
2023/07/02 05:51:59;;;;;;;3.93;3.50;;;24.90;50.50;;;;;;4999022;28;20223;-83
2023/07/02 05:54:25;;;;;;;5.10;4.50;;;24.90;50.40;;;;;;4998921;28;20622;-85
2023/07/02 05:56:51;;;;;;;5.27;3.90;;;24.90;50.30;;;;;;4997658;28;20184;-86
2023/07/02 05:59:18;;;;;;;6.97;4.00;;;24.90;50.10;;;;;;4998957;28;20192;-85
2023/07/02 06:01:45;;;;;;;5.87;4.40;;;24.90;50.00;;;;;;4999517;28;20208;-86
2023/07/02 06:04:11;;;;;;;5.33;3.90;;;24.90;49.90;;;;;;4995547;28;20462;-84
2023/07/02 06:06:38;;;;;;;6.27;4.40;;;24.90;50.30;;;;;;4995667;28;20428;-83
2023/07/02 06:09:04;;;;;;;5.50;3.60;;;24.90;49.60;;;;;;4995683;28;20548;-83
2023/07/02 06:11:30;;;;;;;4.97;3.90;;;24.90;49.50;;;;;;4997275;28;20424;-84
2023/07/02 06:13:56;;;;;;;6.00;4.27;;;24.80;49.40;;;;;;4996800;28;20785;-85
2023/07/02 06:16:21;;;;;;;4.73;4.00;;;24.80;49.30;;;;;;4995821;28;20173;-83
2023/07/02 06:18:47;;;;;;;6.90;4.00;;;24.80;49.30;;;;;;4996036;28;20213;-83
2023/07/02 06:21:12;;;;;;;6.30;3.80;;;24.80;49.20;;;;;;4996905;28;20748;-84
2023/07/02 06:23:42;;;;;;;6.53;4.77;;;24.80;49.10;;;;;;4996263;28;20219;-83
2023/07/02 06:26:08;;;;;;;6.80;4.70;;;24.80;49.00;;;;;;4996388;28;20234;-84
2023/07/02 06:28:34;;;;;;;6.40;4.30;;;24.80;49.00;;;;;;4996880;28;20908;-83
2023/07/02 06:31:00;;;;;;;5.90;4.00;;;24.80;49.00;;;;;;4979658;28;20196;-84
2023/07/02 06:33:26;;;;;;;5.27;4.47;;;24.80;49.00;;;;;;4995347;28;20173;-83
2023/07/02 06:35:52;;;;;;;6.90;4.90;;;24.80;48.90;;;;;;4996711;28;20244;-83
2023/07/02 06:38:17;;;;;;;7.53;4.13;;;24.80;48.80;;;;;;4997140;28;20955;-84
2023/07/02 06:40:43;;;;;;;7.53;4.93;;;24.80;48.70;;;;;;4995946;28;20692;-84
2023/07/02 06:43:09;;;;;;;4.93;4.10;;;24.80;48.60;;;;;;4996913;28;20184;-83
2023/07/02 06:45:35;;;;;;;5.20;4.70;;;24.80;48.50;;;;;;4996385;28;20472;-84
2023/07/02 06:48:01;;;;;;;7.13;4.43;;;24.80;48.50;;;;;;4995553;28;20211;-82
2023/07/02 06:50:26;;;;;;;6.07;4.90;;;24.80;48.50;;;;;;4997228;28;20596;-83
2023/07/02 06:52:52;;;;;;;5.33;4.20;;;24.70;48.40;;;;;;4995176;28;20181;-83
2023/07/02 06:55:19;;;;;;;6.53;5.00;;;24.70;48.40;;;;;;4997064;28;20189;-84
2023/07/02 06:57:45;;;;;;;9.30;5.07;;;24.70;48.30;;;;;;4998237;28;20744;-83
2023/07/02 07:00:13;;;;;;;5.87;4.73;;;24.80;48.30;;;;;;4998051;28;20416;-85
2023/07/02 07:02:39;;;;;;;7.47;4.80;;;24.70;48.20;;;;;;4997276;28;20964;-85
2023/07/02 07:05:06;;;;;;;7.03;4.10;;;24.70;48.10;;;;;;4998719;28;20466;-84
2023/07/02 07:07:39;;;;;;;10.33;4.53;;;24.70;48.00;;;;;;5004956;28;20420;-83
2023/07/02 07:10:06;;;;;;;5.70;4.20;;;24.70;48.10;;;;;;5003745;28;20919;-84
2023/07/02 07:12:32;;;;;;;6.67;4.00;;;24.70;48.50;;;;;;5003422;28;20523;-83
2023/07/02 07:14:57;;;;;;;6.87;4.60;;;24.70;47.90;;;;;;4995377;28;20523;-84
2023/07/02 07:17:23;;;;;;;8.43;5.37;;;24.70;47.90;;;;;;4995557;28;20192;-84
2023/07/02 07:19:49;;;;;;;5.97;4.53;;;24.60;47.80;;;;;;4999670;28;20556;-83
2023/07/02 07:22:15;;;;;;;6.53;4.30;;;24.70;47.80;;;;;;4997474;28;20444;-84
2023/07/02 07:24:42;;;;;;;6.33;4.50;;;24.70;47.80;;;;;;4995023;28;20284;-84
2023/07/02 07:27:10;;;;;;;5.53;4.37;;;24.60;47.80;;;;;;4996957;28;20177;-84
2023/07/02 07:29:36;;;;;;;6.37;4.43;;;24.70;47.90;;;;;;4997238;28;20764;-85
2023/07/02 07:32:02;;;;;;;7.33;5.33;;;24.60;47.90;;;;;;4979138;28;20448;-84
2023/07/02 07:34:28;;;;;;;6.70;4.43;;;24.60;47.90;;;;;;4994728;28;20435;-85
2023/07/02 07:36:53;;;;;;;5.27;4.17;;;24.60;47.80;;;;;;4994217;28;20185;-83
2023/07/02 07:39:19;;;;;;;6.03;4.20;;;24.60;47.70;;;;;;4993400;28;20251;-84
2023/07/02 07:41:50;;;;;;;4.93;3.90;;;24.60;47.70;;;;;;4993664;28;20212;-83
2023/07/02 07:44:16;;;;;;;5.63;4.13;;;24.60;47.70;;;;;;4993392;28;20207;-82
2023/07/02 07:46:41;;;;;;;5.93;4.50;;;24.60;48.30;;;;;;4993143;28;20491;-84
2023/07/02 07:49:07;;;;;;;6.03;4.50;;;24.60;47.70;;;;;;4993451;28;20209;-84
2023/07/02 07:51:35;;;;;;;6.50;4.77;;;24.60;47.60;;;;;;4993407;28;20693;-84
2023/07/02 07:54:01;;;;;;;8.50;4.60;;;24.60;47.70;;;;;;4995013;28;20235;-83
2023/07/02 07:56:27;;;;;;;6.00;4.60;;;24.60;47.70;;;;;;4995812;28;20850;-83
2023/07/02 07:58:53;;;;;;;7.27;5.37;;;24.60;47.70;;;;;;4980025;28;20424;-84
2023/07/02 08:01:20;;;;;;;7.13;5.20;;;24.60;47.70;;;;;;4995353;28;20203;-84
2023/07/02 08:03:47;;;;;;;6.57;4.93;;;24.60;47.80;;;;;;4993878;28;20173;-83
2023/07/02 08:06:12;;;;;;;9.03;4.83;;;24.60;47.90;;;;;;4994773;28;20475;-83
2023/07/02 08:08:38;;;;;;;4.83;4.30;;;24.60;48.00;;;;;;4994269;28;20424;-85
2023/07/02 08:11:04;;;;;;;7.03;4.80;;;24.60;48.00;;;;;;4994627;28;20189;-82
2023/07/02 08:13:29;;;;;;;7.00;5.43;;;24.60;48.00;;;;;;4995435;28;20173;-83
2023/07/02 08:15:56;;;;;;;6.80;5.13;;;24.60;48.00;;;;;;4993751;28;20230;-83
2023/07/02 08:18:22;;;;;;;7.00;4.43;;;24.60;48.00;;;;;;4995053;28;20181;-82
2023/07/02 08:20:48;;;;;;;7.33;5.03;;;24.60;48.00;;;;;;4995112;28;20451;-83
2023/07/02 08:23:13;;;;;;;5.17;4.67;;;24.60;48.00;;;;;;4995690;28;20259;-82
2023/07/02 08:25:39;;;;;;;6.77;5.30;;;24.60;48.00;;;;;;4995121;28;20635;-84
2023/07/02 08:28:06;;;;;;;5.90;4.90;;;24.60;47.90;;;;;;4995255;28;20184;-84
2023/07/02 08:30:31;;;;;;;6.20;5.33;;;24.60;47.90;;;;;;4994072;28;20272;-83
2023/07/02 08:32:57;;;;;;;7.13;5.37;;;24.60;47.90;;;;;;4993241;28;20456;-83
2023/07/02 08:35:23;;;;;;;6.73;5.10;;;24.60;47.90;;;;;;4992992;28;20177;-84
2023/07/02 08:37:48;;;;;;;5.93;4.90;;;24.60;47.90;;;;;;4994636;28;20203;-82
2023/07/02 08:40:18;;;;;;;6.50;5.60;;;24.60;47.90;;;;;;4995060;28;20219;-83
2023/07/02 08:42:48;;;;;;;6.20;4.97;;;24.60;47.90;;;;;;4994718;28;20725;-82
2023/07/02 08:45:17;;;;;;;5.43;4.67;;;24.60;47.80;;;;;;4993877;28;20992;-83
2023/07/02 08:47:47;;;;;;;6.70;4.53;;;24.60;47.70;;;;;;4992982;28;20428;-83
2023/07/02 08:50:13;;;;;;;7.10;4.50;;;24.60;47.70;;;;;;4993723;28;20428;-83
2023/07/02 08:52:39;;;;;;;7.50;4.63;;;24.60;47.70;;;;;;4993542;28;20479;-83
2023/07/02 08:55:07;;;;;;;7.20;5.10;;;24.60;47.70;;;;;;4998596;28;20416;-84
2023/07/02 08:57:35;;;;;;;4.90;4.07;;;24.70;47.80;;;;;;4995910;28;20250;-83
2023/07/02 09:00:07;;;;;;;5.40;4.77;;;24.60;47.60;;;;;;4993882;28;20474;-83
2023/07/02 09:02:33;;;;;;;5.20;4.70;;;24.60;48.10;;;;;;4994457;28;20439;-84
2023/07/02 09:05:02;;;;;;;5.50;4.60;;;24.70;48.40;;;;;;4994451;28;20459;-82
2023/07/02 09:07:29;;;;;;;8.13;4.67;;;24.70;48.60;;;;;;4993712;28;20169;-83
2023/07/02 09:09:55;;;;;;;6.37;4.60;;;24.70;48.50;;;;;;4994215;28;20417;-83
2023/07/02 09:12:28;;;;;;;7.50;4.63;;;24.70;48.50;;;;;;4992588;28;20444;-83
2023/07/02 09:14:58;;;;;;;6.63;4.50;;;24.70;48.60;;;;;;4993453;28;20189;-83
2023/07/02 09:17:32;;;;;;;7.30;4.97;;;24.80;48.80;;;;;;4992231;28;20773;-83
2023/07/02 09:20:02;;;;;;;5.90;4.60;;;24.80;48.80;;;;;;4992298;28;20471;-83
2023/07/02 09:22:28;;;;;;;9.03;4.83;;;24.80;48.80;;;;;;4993020;28;20440;-84
2023/07/02 09:24:57;;;;;;;7.67;4.97;;;24.80;48.90;;;;;;4993176;28;20956;-83
2023/07/02 09:27:36;;;;;;;5.93;4.70;;;24.80;48.90;;;;;;4991771;28;20951;-83
2023/07/02 09:30:15;;;;;;;6.77;5.10;;;24.90;48.70;;;;;;4989677;28;20412;-83
2023/07/02 09:32:41;;;;;;;5.37;4.87;;;24.90;48.70;;;;;;4993522;28;20404;-82
2023/07/02 09:35:06;;;;;;;7.00;5.10;;;24.90;48.50;;;;;;4992857;28;20428;-82
2023/07/02 09:37:34;;;;;;;5.67;4.60;;;24.90;48.30;;;;;;4995016;28;20228;-82
2023/07/02 09:40:01;;;;;;;6.20;4.50;;;24.90;48.20;;;;;;4996587;28;20168;-81
2023/07/02 09:42:28;;;;;;;6.20;4.90;;;24.90;48.10;;;;;;4980174;28;20444;-84
2023/07/02 09:44:58;;;;;;;5.03;4.47;;;24.90;48.10;;;;;;4997240;28;20474;-82
2023/07/02 09:47:25;;;;;;;5.63;4.10;;;24.90;48.20;;;;;;5014325;28;20428;-77
2023/07/02 09:49:58;;;;;;;5.30;4.67;;;24.90;48.60;;;;;;5016708;28;20419;-82
2023/07/02 09:52:25;;;;;;;6.80;4.70;;;24.90;48.50;;;;;;5018191;28;20491;-78
2023/07/02 09:54:51;;;;;;;5.70;4.97;;;24.90;48.40;;;;;;5017854;28;20428;-78
2023/07/02 09:57:16;;;;;;;5.07;4.57;;;24.90;48.30;;;;;;5017409;28;20459;-79
2023/07/02 09:59:46;;;;;;;5.73;4.90;;;24.90;48.30;;;;;;5018373;28;20154;-79
2023/07/02 10:02:13;;;;;;;7.67;5.70;;;24.90;48.30;;;;;;5018161;28;20440;-80
2023/07/02 10:04:47;;;;;;;6.57;5.33;;;24.90;48.30;;;;;;5017474;28;20209;-81
2023/07/02 10:07:27;;;;;;;6.47;5.47;;;24.90;48.80;;;;;;5013964;28;20434;-80
2023/07/02 10:09:53;;;;;;;5.10;4.43;;;24.90;48.20;;;;;;4995243;28;20424;-82
2023/07/02 10:12:27;;;;;;;5.60;5.03;;;24.90;48.20;;;;;;4991602;28;20971;-81
2023/07/02 10:14:55;;;;;;;5.20;4.43;;;24.90;48.20;;;;;;4993226;28;20823;-82
2023/07/02 10:17:54;;;;;;;6.03;4.90;;;24.90;48.20;;;;;;4992760;28;20436;-83
2023/07/02 10:20:38;;;;;;;7.70;5.00;;;24.90;48.10;;;;;;4978775;28;20932;-82
2023/07/02 10:23:05;;;;;;;5.60;4.97;;;24.90;48.10;;;;;;4991277;28;20436;-84
2023/07/02 10:25:36;;;;;;;5.50;4.90;;;24.90;48.20;;;;;;4975216;28;20515;-83
2023/07/02 10:28:22;;;;;;;6.90;5.50;;;24.90;48.20;;;;;;4991578;28;20450;-84
2023/07/02 10:30:48;;;;;;;7.07;6.00;;;24.90;48.10;;;;;;4992404;28;20435;-83
2023/07/02 10:33:18;;;;;;;6.83;4.40;;;24.90;48.10;;;;;;4991326;28;20424;-82
2023/07/02 10:35:47;;;;;;;6.77;5.17;;;24.90;48.10;;;;;;4994376;28;20259;-82
2023/07/02 10:38:22;;;;;;;6.30;4.80;;;24.90;48.10;;;;;;4994529;28;20463;-83
2023/07/02 10:40:55;;;;;;;7.83;5.40;;;24.90;48.10;;;;;;4994891;28;20939;-83
2023/07/02 10:43:28;;;;;;;7.37;5.10;;;24.90;48.10;;;;;;4996238;28;20401;-83
2023/07/02 10:45:54;;;;;;;5.90;4.93;;;24.90;48.00;;;;;;4995971;28;20473;-83
2023/07/02 10:48:19;;;;;;;5.90;4.80;;;24.90;48.00;;;;;;4994347;28;20430;-82
2023/07/02 10:50:46;;;;;;;5.77;4.97;;;24.90;48.00;;;;;;4995868;28;20447;-82
2023/07/02 10:53:16;;;;;;;5.83;5.27;;;24.90;48.00;;;;;;4994563;28;20424;-82
2023/07/02 10:55:59;;;;;;;5.87;5.20;;;24.90;47.90;;;;;;4994390;28;20207;-81
2023/07/02 10:58:25;;;;;;;7.10;5.80;;;24.90;47.90;;;;;;4994653;28;20478;-81
2023/07/02 11:00:51;;;;;;;5.93;4.80;;;24.90;47.80;;;;;;5000821;23;20495;-65
2023/07/02 11:03:22;;;;;;;6.67;4.80;;;24.90;47.80;;;;;;4995469;28;20154;-65
2023/07/02 11:05:48;;;;;;;6.17;5.20;;;24.90;47.70;;;;;;4994744;28;20463;-66
2023/07/02 11:08:14;;;;;;;7.50;5.53;;;24.90;47.70;;;;;;4995159;28;20522;-66
2023/07/02 11:10:40;;;;;;;5.53;5.03;;;24.90;47.60;;;;;;4995231;28;20487;-68
2023/07/02 11:13:13;;;;;;;5.43;4.93;;;24.90;47.60;;;;;;4995466;28;20169;-67
2023/07/02 11:15:41;;;;;;;6.17;5.00;;;24.90;47.50;;;;;;4995205;28;20433;-65
2023/07/02 11:18:10;;;;;;;6.50;5.53;;;24.90;47.50;;;;;;4995041;28;20482;-66
2023/07/02 11:20:36;;;;;;;8.30;5.57;;;24.90;47.40;;;;;;4995247;28;20507;-66
2023/07/02 11:23:01;;;;;;;6.33;5.30;;;24.90;47.40;;;;;;4993636;28;21020;-66
2023/07/02 11:25:27;;;;;;;7.40;5.37;;;24.90;47.30;;;;;;4994658;28;20207;-67
2023/07/02 11:28:05;;;;;;;7.23;4.83;;;24.90;47.40;;;;;;4995069;28;20589;-67
2023/07/02 11:30:30;;;;;;;6.93;5.50;;;24.90;47.40;;;;;;4995119;28;20797;-66
2023/07/02 11:32:56;;;;;;;5.60;5.10;;;24.90;47.40;;;;;;4994809;28;20462;-67
2023/07/02 11:35:34;;;;;;;6.30;5.70;;;24.90;47.90;;;;;;4994766;28;20239;-66
2023/07/02 11:37:59;;;;;;;6.00;5.33;;;24.90;47.30;;;;;;4994655;28;20201;-65
2023/07/02 11:40:25;;;;;;;6.10;5.50;;;24.90;47.20;;;;;;4994511;28;20430;-67
2023/07/02 11:42:51;;;;;;;6.10;5.47;;;24.90;47.20;;;;;;4994623;28;20196;-65
2023/07/02 11:45:16;;;;;;;6.57;5.43;;;24.90;47.10;;;;;;4994249;28;20200;-66
2023/07/02 11:47:42;;;;;;;9.03;5.30;;;24.90;47.20;;;;;;4994464;28;20185;-66
2023/07/02 11:50:08;;;;;;;8.43;6.40;;;24.90;47.10;;;;;;4994477;28;20536;-67
2023/07/02 11:52:34;;;;;;;8.53;6.40;;;24.90;47.10;;;;;;4994495;28;20177;-67
2023/07/02 11:54:59;;;;;;;8.70;5.80;;;24.90;47.20;;;;;;4994144;28;20889;-67
2023/07/02 11:57:25;;;;;;;11.40;6.30;;;24.90;47.20;;;;;;4994283;28;20224;-67
2023/07/02 11:59:52;;;;;;;7.37;5.60;;;24.90;47.20;;;;;;4994342;28;20181;-67
2023/07/02 12:02:18;;;;;;;7.03;5.70;;;24.90;47.20;;;;;;4994183;28;20189;-66
2023/07/02 12:04:43;;;;;;;6.30;5.10;;;24.90;47.30;;;;;;4994014;28;20455;-67
2023/07/02 12:07:09;;;;;;;9.00;6.63;;;24.90;47.30;;;;;;4993777;28;20451;-66
2023/07/02 12:09:36;;;;;;;7.77;5.37;;;24.90;47.30;;;;;;4994045;28;20247;-67
2023/07/02 12:12:02;;;;;;;6.73;5.33;;;24.90;47.40;;;;;;4994261;28;20252;-67
2023/07/02 12:14:28;;;;;;;7.27;5.93;;;24.90;47.40;;;;;;4994189;28;20424;-66
2023/07/02 12:16:54;;;;;;;7.10;6.40;;;24.90;47.40;;;;;;4993892;28;20819;-66
2023/07/02 12:19:19;;;;;;;7.43;6.67;;;24.90;47.50;;;;;;4994032;28;20177;-68
2023/07/02 12:21:45;;;;;;;8.43;5.97;;;24.90;47.40;;;;;;4994142;28;20216;-67
2023/07/02 12:24:10;;;;;;;7.97;5.50;;;24.90;47.40;;;;;;4993880;28;20184;-67
2023/07/02 12:26:37;;;;;;;8.57;5.40;;;24.90;47.40;;;;;;4993933;28;20192;-67
2023/07/02 12:29:03;;;;;;;6.70;5.60;;;24.90;47.40;;;;;;4993941;28;20227;-67
2023/07/02 12:31:29;;;;;;;6.90;5.40;;;24.90;47.50;;;;;;4993732;28;20447;-67
2023/07/02 12:33:55;;;;;;;6.30;5.70;;;24.90;47.40;;;;;;4993781;28;20440;-68
2023/07/02 12:36:21;;;;;;;7.20;6.10;;;24.90;47.40;;;;;;4993451;28;20498;-67
2023/07/02 12:38:46;;;;;;;6.87;5.73;;;24.90;47.40;;;;;;4993755;28;20169;-67
2023/07/02 12:41:12;;;;;;;7.30;5.90;;;24.90;47.40;;;;;;4993721;28;20169;-67
2023/07/02 12:43:37;;;;;;;6.47;5.77;;;24.90;47.30;;;;;;4993575;28;20169;-66
2023/07/02 12:46:03;;;;;;;7.50;6.27;;;24.90;47.30;;;;;;4993399;28;20566;-66
2023/07/02 12:48:29;;;;;;;6.70;6.00;;;24.90;47.20;;;;;;4993645;28;20657;-67